< < Back
Terminal Aerodrome Forecast


Current Version              Previous Versions:   1  2  3  4  5  6  7  8  9  

Terminal Aerodrome Forecast

402
FTUS42 KGSP 291725
TAFHKY
TAF
KHKY 291725Z 2918/3018 18004KT P6SM FEW250
     FM292200 21006KT P6SM SCT040
     FM300800 24004KT P6SM SCT190
     FM301600 22007KT P6SM BKN050=



Latest METAR

317
SAUS70 KWBC 301400 RRB
MTRHKY
METAR KHKY 301353Z VRB05KT 10SM CLR 27/17 A2996 RMK AO2 SLP121
T02670172


USA.gov is the U.S. government's official web portal to all federal, state and local government web resources and services.